Terminal Aerodrome Forecast
Issued by NWS Jackson, KY

Home | Current Version | Previous Version | Text Only | Print | Product List | Glossary On
Versions: 1 2 3 4 5 6 7 8 9 10 11 12 13 14 15 16
421
FTUS43 KJKL 032321
TAFJKL
TAF
KJKL 032321Z 0400/0424 00000KT P6SM SCT035 BKN250
     FM040400 VRB03KT P6SM OVC070
     FM040900 VRB03KT P6SM VCSH OVC050
     FM041200 VRB03KT P6SM VCSH OVC025=

USA.gov is the U.S. government's official web portal to all federal, state and local government web resources and services.